createdAt,value
2024-03-26T00:04:19.313Z,0.93
2024-03-26T00:14:22.806Z,1.08
2024-03-26T00:24:25.710Z,1.02
2024-03-26T00:34:28.775Z,1.06
2024-03-26T00:44:31.648Z,1.01
2024-03-26T00:54:34.592Z,1.11
2024-03-26T01:04:37.494Z,1.26
2024-03-26T01:14:40.348Z,1.56
2024-03-26T01:24:43.316Z,1.83
2024-03-26T01:34:46.186Z,2.19
2024-03-26T01:44:49.176Z,2.34
2024-03-26T01:54:52.536Z,2.26
2024-03-26T02:04:55.862Z,2.11
2024-03-26T02:14:58.778Z,1.88
2024-03-26T02:25:01.824Z,1.61
2024-03-26T02:35:04.997Z,1.42
2024-03-26T02:45:08.804Z,1.23
2024-03-26T02:55:12.004Z,1.36
2024-03-26T03:05:15.055Z,1.60
2024-03-26T03:15:17.981Z,1.53
2024-03-26T03:25:21.441Z,1.28
2024-03-26T03:35:24.472Z,0.89
2024-03-26T03:45:29.353Z,0.60
2024-03-26T03:55:32.318Z,0.52
2024-03-26T04:05:38.702Z,0.48
2024-03-26T04:15:42.558Z,0.68
2024-03-26T04:25:56.042Z,0.64
2024-03-26T04:35:59.833Z,0.46
2024-03-26T04:46:02.775Z,0.37
2024-03-26T04:56:06.141Z,0.44
2024-03-26T05:06:09.052Z,0.67
2024-03-26T05:16:11.940Z,0.92
2024-03-26T05:26:15.253Z,0.97
2024-03-26T05:36:18.345Z,1.04
2024-03-26T05:46:21.715Z,1.08
2024-03-26T05:56:24.836Z,1.27
2024-03-26T06:06:27.715Z,1.60
2024-03-26T06:16:30.690Z,2.16
2024-03-26T06:26:33.683Z,2.72
2024-03-26T06:36:36.777Z,3.10
2024-03-26T06:46:40.253Z,3.52
2024-03-26T06:56:43.207Z,3.90
2024-03-26T07:06:46.288Z,4.57
2024-03-26T07:16:49.342Z,5.08
2024-03-26T07:26:52.448Z,5.50
2024-03-26T07:36:55.323Z,5.74
2024-03-26T07:46:59.838Z,5.62
2024-03-26T07:57:04.057Z,5.68
2024-03-26T08:07:08.315Z,5.97
2024-03-26T08:17:11.374Z,6.31
2024-03-26T08:27:14.322Z,6.74
2024-03-26T08:37:17.284Z,7.20
2024-03-26T08:47:20.211Z,7.70
2024-03-26T08:57:23.276Z,8.11
2024-03-26T09:07:26.193Z,8.62
2024-03-26T09:17:29.246Z,9.19
2024-03-26T09:27:32.283Z,9.65
2024-03-26T09:37:35.606Z,10.07
2024-03-26T09:47:40.778Z,10.56
2024-03-26T09:57:45.399Z,11.00
2024-03-26T10:07:48.352Z,11.40
2024-03-26T10:17:51.276Z,11.77
2024-03-26T10:27:56.899Z,12.13
2024-03-26T10:38:13.008Z,12.38
2024-03-26T10:48:21.493Z,12.60
2024-03-26T10:58:24.627Z,12.88
2024-03-26T11:08:28.143Z,13.17
2024-03-26T11:18:33.832Z,13.38
2024-03-26T11:28:37.722Z,13.53
2024-03-26T11:38:41.311Z,13.71
2024-03-26T11:48:46.766Z,13.59
2024-03-26T11:58:50.934Z,13.53
2024-03-26T12:08:59.244Z,13.40
2024-03-26T12:19:02.799Z,13.73
2024-03-26T12:29:08.468Z,13.74
2024-03-26T12:39:12.088Z,13.77
2024-03-26T12:49:19.369Z,13.91
2024-03-26T12:59:22.458Z,13.90
2024-03-26T13:09:25.386Z,13.99
2024-03-26T13:19:29.612Z,14.11
2024-03-26T13:29:33.371Z,14.38
2024-03-26T13:39:36.259Z,14.43
2024-03-26T13:49:39.655Z,14.25
2024-03-26T13:59:45.525Z,14.15
2024-03-26T14:09:48.460Z,14.33
2024-03-26T14:19:51.384Z,14.40
2024-03-26T14:29:55.303Z,14.39
2024-03-26T14:39:59.422Z,14.17
2024-03-26T14:50:02.473Z,14.13
2024-03-26T15:00:06.728Z,14.00
2024-03-26T15:10:10.747Z,13.60
2024-03-26T15:20:15.870Z,13.16
2024-03-26T15:30:39.811Z,12.80
2024-03-26T15:40:43.565Z,12.48
2024-03-26T15:50:47.147Z,12.36
2024-03-26T16:00:50.320Z,12.24
2024-03-26T16:21:04.276Z,11.71
2024-03-26T16:31:08.221Z,11.37
2024-03-26T16:41:21.301Z,11.03
2024-03-26T16:51:24.312Z,10.55
2024-03-26T17:01:29.492Z,10.12
2024-03-26T17:11:35.420Z,9.93
2024-03-26T17:21:40.020Z,9.67
2024-03-26T17:31:43.068Z,9.66
2024-03-26T17:41:46.004Z,9.53
2024-03-26T17:51:49.119Z,9.37
2024-03-26T18:01:55.322Z,9.05
2024-03-26T18:11:59.433Z,8.74
2024-03-26T18:22:04.627Z,8.40
2024-03-26T18:32:07.553Z,8.04
2024-03-26T18:42:11.141Z,7.65
2024-03-26T18:52:14.108Z,7.35
2024-03-26T19:02:17.085Z,7.08
2024-03-26T19:12:23.379Z,6.82
2024-03-26T19:22:28.978Z,6.58
2024-03-26T19:32:31.953Z,6.39
2024-03-26T19:42:34.794Z,6.27
2024-03-26T19:52:38.615Z,6.01
2024-03-26T20:02:45.002Z,5.60
2024-03-26T20:12:48.226Z,5.19
2024-03-26T20:22:55.733Z,4.78
2024-03-26T20:32:59.789Z,4.56
2024-03-26T20:43:02.808Z,4.35
2024-03-26T20:53:06.389Z,4.08
2024-03-26T21:03:09.738Z,3.75
2024-03-26T21:13:12.819Z,3.49
2024-03-26T21:23:26.072Z,3.16
2024-03-26T21:33:29.436Z,2.89
2024-03-26T21:43:32.651Z,2.67
2024-03-26T21:53:35.528Z,2.50
2024-03-26T22:03:39.347Z,2.30
2024-03-26T22:13:42.288Z,2.21
2024-03-26T22:23:46.446Z,2.22
2024-03-26T22:33:49.627Z,2.15
2024-03-26T22:43:52.798Z,2.23
2024-03-26T22:53:55.736Z,2.29
2024-03-26T23:03:58.709Z,2.28
2024-03-26T23:14:01.630Z,2.27
2024-03-26T23:24:05.343Z,2.25
2024-03-26T23:34:08.589Z,2.20
2024-03-26T23:44:11.449Z,2.19
2024-03-26T23:54:14.336Z,2.15
